sensor_id;sensor_type;location;lat;lon;timestamp;P1;durP1;ratioP1;P2;durP2;ratioP2
19951;SDS011;10137;49.406;19.484;2022-12-07T00:01:15;2.73;;;1.63;;
19951;SDS011;10137;49.406;19.484;2022-12-07T00:03:46;2.70;;;2.20;;
19951;SDS011;10137;49.406;19.484;2022-12-07T00:06:14;7.30;;;6.10;;
19951;SDS011;10137;49.406;19.484;2022-12-07T00:08:43;10.03;;;8.60;;
19951;SDS011;10137;49.406;19.484;2022-12-07T00:11:11;7.33;;;5.10;;
19951;SDS011;10137;49.406;19.484;2022-12-07T00:13:39;3.90;;;3.50;;
19951;SDS011;10137;49.406;19.484;2022-12-07T00:16:08;3.83;;;2.73;;
19951;SDS011;10137;49.406;19.484;2022-12-07T00:18:36;1.97;;;1.83;;
19951;SDS011;10137;49.406;19.484;2022-12-07T00:21:06;2.87;;;2.20;;
19951;SDS011;10137;49.406;19.484;2022-12-07T00:23:36;4.37;;;2.50;;
19951;SDS011;10137;49.406;19.484;2022-12-07T00:26:04;4.00;;;2.07;;
19951;SDS011;10137;49.406;19.484;2022-12-07T00:28:32;4.03;;;3.50;;
19951;SDS011;10137;49.406;19.484;2022-12-07T00:31:00;3.47;;;2.60;;
19951;SDS011;10137;49.406;19.484;2022-12-07T00:33:29;2.97;;;1.97;;
19951;SDS011;10137;49.406;19.484;2022-12-07T00:35:56;3.80;;;2.20;;
19951;SDS011;10137;49.406;19.484;2022-12-07T00:38:24;2.70;;;2.03;;
19951;SDS011;10137;49.406;19.484;2022-12-07T00:40:55;2.67;;;1.83;;
19951;SDS011;10137;49.406;19.484;2022-12-07T00:43:23;2.40;;;1.80;;
19951;SDS011;10137;49.406;19.484;2022-12-07T00:45:50;2.17;;;1.83;;
19951;SDS011;10137;49.406;19.484;2022-12-07T00:48:17;2.20;;;1.50;;
19951;SDS011;10137;49.406;19.484;2022-12-07T00:50:44;1.83;;;1.40;;
19951;SDS011;10137;49.406;19.484;2022-12-07T00:53:11;2.10;;;1.70;;
19951;SDS011;10137;49.406;19.484;2022-12-07T00:55:40;1.83;;;1.40;;
19951;SDS011;10137;49.406;19.484;2022-12-07T00:58:07;1.60;;;1.30;;
19951;SDS011;10137;49.406;19.484;2022-12-07T01:00:35;1.83;;;1.40;;
19951;SDS011;10137;49.406;19.484;2022-12-07T01:03:03;2.50;;;2.30;;
19951;SDS011;10137;49.406;19.484;2022-12-07T01:05:30;7.33;;;5.70;;
19951;SDS011;10137;49.406;19.484;2022-12-07T01:07:57;6.73;;;6.03;;
19951;SDS011;10137;49.406;19.484;2022-12-07T01:10:24;2.70;;;2.50;;
19951;SDS011;10137;49.406;19.484;2022-12-07T01:12:53;2.60;;;1.67;;
19951;SDS011;10137;49.406;19.484;2022-12-07T01:15:20;2.57;;;2.30;;
19951;SDS011;10137;49.406;19.484;2022-12-07T01:17:47;2.50;;;2.30;;
19951;SDS011;10137;49.406;19.484;2022-12-07T01:20:14;2.03;;;1.87;;
19951;SDS011;10137;49.406;19.484;2022-12-07T01:22:42;2.70;;;2.03;;
19951;SDS011;10137;49.406;19.484;2022-12-07T01:25:10;3.43;;;1.80;;
19951;SDS011;10137;49.406;19.484;2022-12-07T01:27:37;2.27;;;1.70;;
19951;SDS011;10137;49.406;19.484;2022-12-07T01:30:06;2.40;;;1.70;;
19951;SDS011;10137;49.406;19.484;2022-12-07T01:32:34;2.80;;;1.77;;
19951;SDS011;10137;49.406;19.484;2022-12-07T01:35:01;1.50;;;1.40;;
19951;SDS011;10137;49.406;19.484;2022-12-07T01:37:28;1.73;;;1.37;;
19951;SDS011;10137;49.406;19.484;2022-12-07T01:40:00;1.50;;;1.30;;
19951;SDS011;10137;49.406;19.484;2022-12-07T01:42:27;1.70;;;1.57;;
19951;SDS011;10137;49.406;19.484;2022-12-07T01:47:56;1.83;;;1.50;;
19951;SDS011;10137;49.406;19.484;2022-12-07T01:50:25;1.67;;;1.40;;
19951;SDS011;10137;49.406;19.484;2022-12-07T01:52:56;1.30;;;1.20;;
19951;SDS011;10137;49.406;19.484;2022-12-07T01:55:28;2.10;;;1.50;;
19951;SDS011;10137;49.406;19.484;2022-12-07T01:57:56;1.70;;;1.50;;
19951;SDS011;10137;49.406;19.484;2022-12-07T02:00:23;1.80;;;1.70;;
19951;SDS011;10137;49.406;19.484;2022-12-07T02:02:51;1.90;;;1.80;;
19951;SDS011;10137;49.406;19.484;2022-12-07T02:05:23;17.97;;;14.67;;
19951;SDS011;10137;49.406;19.484;2022-12-07T02:07:52;4.80;;;4.17;;
19951;SDS011;10137;49.406;19.484;2022-12-07T02:10:22;3.10;;;2.27;;
19951;SDS011;10137;49.406;19.484;2022-12-07T02:12:51;4.70;;;3.83;;
19951;SDS011;10137;49.406;19.484;2022-12-07T02:15:22;5.27;;;3.50;;
19951;SDS011;10137;49.406;19.484;2022-12-07T02:17:56;4.47;;;3.30;;
19951;SDS011;10137;49.406;19.484;2022-12-07T02:20:33;3.50;;;2.80;;
19951;SDS011;10137;49.406;19.484;2022-12-07T02:23:12;3.10;;;2.80;;
19951;SDS011;10137;49.406;19.484;2022-12-07T02:25:58;2.67;;;2.10;;
19951;SDS011;10137;49.406;19.484;2022-12-07T02:29:07;3.87;;;2.60;;
19951;SDS011;10137;49.406;19.484;2022-12-07T02:31:41;3.33;;;2.33;;
19951;SDS011;10137;49.406;19.484;2022-12-07T02:34:14;2.73;;;1.83;;
19951;SDS011;10137;49.406;19.484;2022-12-07T02:36:50;2.57;;;1.97;;
19951;SDS011;10137;49.406;19.484;2022-12-07T02:39:22;1.70;;;1.60;;
19951;SDS011;10137;49.406;19.484;2022-12-07T02:41:56;3.10;;;2.00;;
19951;SDS011;10137;49.406;19.484;2022-12-07T02:44:29;2.13;;;1.80;;
19951;SDS011;10137;49.406;19.484;2022-12-07T02:47:01;2.20;;;1.73;;
19951;SDS011;10137;49.406;19.484;2022-12-07T02:49:32;2.93;;;1.83;;
19951;SDS011;10137;49.406;19.484;2022-12-07T02:51:59;3.83;;;2.00;;
19951;SDS011;10137;49.406;19.484;2022-12-07T02:54:26;1.97;;;1.77;;
19951;SDS011;10137;49.406;19.484;2022-12-07T02:56:56;2.27;;;1.70;;
19951;SDS011;10137;49.406;19.484;2022-12-07T02:59:36;2.40;;;1.80;;
19951;SDS011;10137;49.406;19.484;2022-12-07T03:02:15;2.40;;;1.90;;
19951;SDS011;10137;49.406;19.484;2022-12-07T03:04:51;3.20;;;2.00;;
19951;SDS011;10137;49.406;19.484;2022-12-07T03:07:26;4.90;;;4.00;;
19951;SDS011;10137;49.406;19.484;2022-12-07T03:10:01;11.63;;;10.43;;
19951;SDS011;10137;49.406;19.484;2022-12-07T03:12:32;4.43;;;4.00;;
19951;SDS011;10137;49.406;19.484;2022-12-07T03:15:08;3.13;;;2.83;;
19951;SDS011;10137;49.406;19.484;2022-12-07T03:17:39;2.50;;;2.30;;
19951;SDS011;10137;49.406;19.484;2022-12-07T03:20:09;2.40;;;2.00;;
19951;SDS011;10137;49.406;19.484;2022-12-07T03:22:40;3.07;;;2.77;;
19951;SDS011;10137;49.406;19.484;2022-12-07T03:25:10;2.97;;;2.77;;
19951;SDS011;10137;49.406;19.484;2022-12-07T03:27:41;6.77;;;6.17;;
19951;SDS011;10137;49.406;19.484;2022-12-07T03:30:14;3.97;;;2.70;;
19951;SDS011;10137;49.406;19.484;2022-12-07T03:32:44;3.50;;;3.20;;
19951;SDS011;10137;49.406;19.484;2022-12-07T03:35:16;3.83;;;2.70;;
19951;SDS011;10137;49.406;19.484;2022-12-07T03:37:49;2.53;;;2.13;;
19951;SDS011;10137;49.406;19.484;2022-12-07T03:40:22;2.63;;;2.20;;
19951;SDS011;10137;49.406;19.484;2022-12-07T03:42:52;10.37;;;9.43;;
19951;SDS011;10137;49.406;19.484;2022-12-07T03:45:23;3.77;;;3.37;;
19951;SDS011;10137;49.406;19.484;2022-12-07T03:48:00;5.30;;;4.80;;
19951;SDS011;10137;49.406;19.484;2022-12-07T03:50:32;3.10;;;2.80;;
19951;SDS011;10137;49.406;19.484;2022-12-07T03:53:05;4.83;;;4.40;;
19951;SDS011;10137;49.406;19.484;2022-12-07T03:55:36;8.07;;;6.80;;
19951;SDS011;10137;49.406;19.484;2022-12-07T03:58:08;6.63;;;5.93;;
19951;SDS011;10137;49.406;19.484;2022-12-07T04:00:39;14.30;;;12.87;;
19951;SDS011;10137;49.406;19.484;2022-12-07T04:03:07;30.47;;;18.37;;
19951;SDS011;10137;49.406;19.484;2022-12-07T04:05:34;7.87;;;5.03;;
19951;SDS011;10137;49.406;19.484;2022-12-07T04:08:02;2.83;;;2.20;;
19951;SDS011;10137;49.406;19.484;2022-12-07T04:10:29;3.53;;;2.10;;
19951;SDS011;10137;49.406;19.484;2022-12-07T04:12:56;3.10;;;2.10;;
19951;SDS011;10137;49.406;19.484;2022-12-07T04:15:23;2.83;;;2.30;;
19951;SDS011;10137;49.406;19.484;2022-12-07T04:17:52;4.50;;;2.30;;
19951;SDS011;10137;49.406;19.484;2022-12-07T04:20:22;2.70;;;2.20;;
19951;SDS011;10137;49.406;19.484;2022-12-07T04:22:50;3.90;;;2.57;;
19951;SDS011;10137;49.406;19.484;2022-12-07T04:25:17;4.20;;;2.63;;
19951;SDS011;10137;49.406;19.484;2022-12-07T04:27:44;4.03;;;2.57;;
19951;SDS011;10137;49.406;19.484;2022-12-07T04:30:11;5.23;;;2.80;;
19951;SDS011;10137;49.406;19.484;2022-12-07T04:32:38;5.37;;;2.80;;
19951;SDS011;10137;49.406;19.484;2022-12-07T04:35:07;3.57;;;2.30;;
19951;SDS011;10137;49.406;19.484;2022-12-07T04:37:34;5.20;;;2.70;;
19951;SDS011;10137;49.406;19.484;2022-12-07T04:40:04;2.43;;;1.80;;
19951;SDS011;10137;49.406;19.484;2022-12-07T04:42:32;3.03;;;2.10;;
19951;SDS011;10137;49.406;19.484;2022-12-07T04:45:00;2.80;;;2.00;;
19951;SDS011;10137;49.406;19.484;2022-12-07T04:47:26;4.53;;;2.20;;
19951;SDS011;10137;49.406;19.484;2022-12-07T04:49:53;4.27;;;2.40;;
19951;SDS011;10137;49.406;19.484;2022-12-07T04:52:22;3.53;;;2.30;;
19951;SDS011;10137;49.406;19.484;2022-12-07T04:54:49;4.57;;;2.97;;
19951;SDS011;10137;49.406;19.484;2022-12-07T04:57:16;7.03;;;3.87;;
19951;SDS011;10137;49.406;19.484;2022-12-07T04:59:43;3.20;;;2.40;;
19951;SDS011;10137;49.406;19.484;2022-12-07T05:02:10;2.90;;;2.10;;
19951;SDS011;10137;49.406;19.484;2022-12-07T05:04:37;3.20;;;2.30;;
19951;SDS011;10137;49.406;19.484;2022-12-07T05:07:04;7.83;;;3.93;;
19951;SDS011;10137;49.406;19.484;2022-12-07T05:09:32;6.00;;;4.00;;
19951;SDS011;10137;49.406;19.484;2022-12-07T05:11:59;4.20;;;2.77;;
19951;SDS011;10137;49.406;19.484;2022-12-07T05:14:26;2.33;;;1.60;;
19951;SDS011;10137;49.406;19.484;2022-12-07T05:16:53;1.90;;;1.70;;
19951;SDS011;10137;49.406;19.484;2022-12-07T05:19:20;3.10;;;1.83;;
19951;SDS011;10137;49.406;19.484;2022-12-07T05:21:47;3.33;;;2.03;;
19951;SDS011;10137;49.406;19.484;2022-12-07T05:24:15;2.40;;;1.90;;
19951;SDS011;10137;49.406;19.484;2022-12-07T05:26:44;2.07;;;1.80;;
19951;SDS011;10137;49.406;19.484;2022-12-07T05:29:12;1.93;;;1.70;;
19951;SDS011;10137;49.406;19.484;2022-12-07T05:31:40;3.43;;;2.10;;
19951;SDS011;10137;49.406;19.484;2022-12-07T05:34:07;2.20;;;1.87;;
19951;SDS011;10137;49.406;19.484;2022-12-07T05:36:34;3.70;;;2.30;;
19951;SDS011;10137;49.406;19.484;2022-12-07T05:39:02;3.33;;;2.13;;
19951;SDS011;10137;49.406;19.484;2022-12-07T05:41:29;2.60;;;2.00;;
19951;SDS011;10137;49.406;19.484;2022-12-07T05:44:15;5.00;;;3.10;;
19951;SDS011;10137;49.406;19.484;2022-12-07T05:46:41;5.50;;;3.23;;
19951;SDS011;10137;49.406;19.484;2022-12-07T05:49:08;8.63;;;4.57;;
19951;SDS011;10137;49.406;19.484;2022-12-07T05:51:36;8.23;;;4.30;;
19951;SDS011;10137;49.406;19.484;2022-12-07T05:54:03;7.57;;;4.40;;
19951;SDS011;10137;49.406;19.484;2022-12-07T05:56:30;7.90;;;4.50;;
19951;SDS011;10137;49.406;19.484;2022-12-07T05:58:57;5.73;;;3.60;;
19951;SDS011;10137;49.406;19.484;2022-12-07T06:01:42;8.40;;;3.77;;
19951;SDS011;10137;49.406;19.484;2022-12-07T06:04:09;8.17;;;4.40;;
19951;SDS011;10137;49.406;19.484;2022-12-07T06:06:36;9.27;;;5.80;;
19951;SDS011;10137;49.406;19.484;2022-12-07T06:09:04;18.07;;;8.37;;
19951;SDS011;10137;49.406;19.484;2022-12-07T06:11:31;26.23;;;11.93;;
19951;SDS011;10137;49.406;19.484;2022-12-07T06:14:15;18.53;;;8.70;;
19951;SDS011;10137;49.406;19.484;2022-12-07T06:16:43;20.93;;;9.60;;
19951;SDS011;10137;49.406;19.484;2022-12-07T06:19:11;7.87;;;4.53;;
19951;SDS011;10137;49.406;19.484;2022-12-07T06:21:38;4.97;;;3.13;;
19951;SDS011;10137;49.406;19.484;2022-12-07T06:24:05;4.80;;;3.33;;
19951;SDS011;10137;49.406;19.484;2022-12-07T06:26:33;5.27;;;3.97;;
19951;SDS011;10137;49.406;19.484;2022-12-07T06:29:00;7.43;;;3.63;;
19951;SDS011;10137;49.406;19.484;2022-12-07T06:31:27;5.37;;;3.70;;
19951;SDS011;10137;49.406;19.484;2022-12-07T06:33:58;6.37;;;3.47;;
19951;SDS011;10137;49.406;19.484;2022-12-07T06:36:25;7.30;;;4.60;;
19951;SDS011;10137;49.406;19.484;2022-12-07T06:38:52;8.33;;;4.87;;
19951;SDS011;10137;49.406;19.484;2022-12-07T06:41:19;7.80;;;5.00;;
19951;SDS011;10137;49.406;19.484;2022-12-07T06:43:46;7.33;;;4.63;;
19951;SDS011;10137;49.406;19.484;2022-12-07T06:46:14;7.30;;;4.17;;
19951;SDS011;10137;49.406;19.484;2022-12-07T06:48:42;8.80;;;5.20;;
19951;SDS011;10137;49.406;19.484;2022-12-07T06:51:11;10.00;;;5.23;;
19951;SDS011;10137;49.406;19.484;2022-12-07T06:53:38;6.97;;;4.07;;
19951;SDS011;10137;49.406;19.484;2022-12-07T06:56:05;6.07;;;4.13;;
19951;SDS011;10137;49.406;19.484;2022-12-07T06:58:32;12.90;;;5.13;;
19951;SDS011;10137;49.406;19.484;2022-12-07T07:00:59;15.60;;;5.23;;
19951;SDS011;10137;49.406;19.484;2022-12-07T07:03:26;15.80;;;5.37;;
19951;SDS011;10137;49.406;19.484;2022-12-07T07:05:53;11.97;;;4.60;;
19951;SDS011;10137;49.406;19.484;2022-12-07T07:08:21;14.33;;;4.17;;
19951;SDS011;10137;49.406;19.484;2022-12-07T07:10:48;12.93;;;3.77;;
19951;SDS011;10137;49.406;19.484;2022-12-07T07:13:15;10.90;;;4.20;;
19951;SDS011;10137;49.406;19.484;2022-12-07T07:15:42;14.70;;;4.13;;
19951;SDS011;10137;49.406;19.484;2022-12-07T07:18:10;19.93;;;4.27;;
19951;SDS011;10137;49.406;19.484;2022-12-07T07:20:37;23.07;;;5.70;;
19951;SDS011;10137;49.406;19.484;2022-12-07T07:23:04;24.10;;;5.97;;
19951;SDS011;10137;49.406;19.484;2022-12-07T07:25:33;27.10;;;6.57;;
19951;SDS011;10137;49.406;19.484;2022-12-07T07:28:00;22.47;;;5.67;;
19951;SDS011;10137;49.406;19.484;2022-12-07T07:30:27;18.47;;;5.33;;
19951;SDS011;10137;49.406;19.484;2022-12-07T07:32:55;8.53;;;4.23;;
19951;SDS011;10137;49.406;19.484;2022-12-07T07:35:23;9.00;;;5.27;;
19951;SDS011;10137;49.406;19.484;2022-12-07T07:37:50;9.90;;;5.27;;
19951;SDS011;10137;49.406;19.484;2022-12-07T07:40:17;7.77;;;4.77;;
19951;SDS011;10137;49.406;19.484;2022-12-07T07:42:48;7.33;;;4.47;;
19951;SDS011;10137;49.406;19.484;2022-12-07T07:45:16;7.93;;;4.37;;
19951;SDS011;10137;49.406;19.484;2022-12-07T07:47:43;7.83;;;3.87;;
19951;SDS011;10137;49.406;19.484;2022-12-07T07:50:13;7.53;;;4.20;;
19951;SDS011;10137;49.406;19.484;2022-12-07T07:52:41;8.63;;;4.70;;
19951;SDS011;10137;49.406;19.484;2022-12-07T07:55:09;7.83;;;4.30;;
19951;SDS011;10137;49.406;19.484;2022-12-07T07:57:41;7.57;;;4.33;;
19951;SDS011;10137;49.406;19.484;2022-12-07T08:00:13;7.90;;;4.20;;
19951;SDS011;10137;49.406;19.484;2022-12-07T08:02:41;7.87;;;4.10;;
19951;SDS011;10137;49.406;19.484;2022-12-07T08:05:09;7.50;;;4.47;;
19951;SDS011;10137;49.406;19.484;2022-12-07T08:07:37;8.23;;;4.97;;
19951;SDS011;10137;49.406;19.484;2022-12-07T08:10:05;8.70;;;4.70;;
19951;SDS011;10137;49.406;19.484;2022-12-07T08:12:36;7.57;;;4.33;;
19951;SDS011;10137;49.406;19.484;2022-12-07T08:15:26;12.00;;;5.57;;
19951;SDS011;10137;49.406;19.484;2022-12-07T08:17:55;8.13;;;4.40;;
19951;SDS011;10137;49.406;19.484;2022-12-07T08:20:22;8.50;;;4.93;;
19951;SDS011;10137;49.406;19.484;2022-12-07T08:22:49;9.17;;;4.90;;
19951;SDS011;10137;49.406;19.484;2022-12-07T08:25:16;9.77;;;5.13;;
19951;SDS011;10137;49.406;19.484;2022-12-07T08:27:44;8.87;;;5.03;;
19951;SDS011;10137;49.406;19.484;2022-12-07T08:30:11;3.63;;;2.70;;
19951;SDS011;10137;49.406;19.484;2022-12-07T08:32:39;3.90;;;2.73;;
19951;SDS011;10137;49.406;19.484;2022-12-07T08:35:07;3.37;;;2.37;;
19951;SDS011;10137;49.406;19.484;2022-12-07T08:37:35;7.50;;;3.83;;
19951;SDS011;10137;49.406;19.484;2022-12-07T08:40:04;6.67;;;3.70;;
19951;SDS011;10137;49.406;19.484;2022-12-07T08:42:32;6.97;;;4.30;;
19951;SDS011;10137;49.406;19.484;2022-12-07T08:45:05;7.90;;;4.77;;
19951;SDS011;10137;49.406;19.484;2022-12-07T08:47:33;8.70;;;5.00;;
19951;SDS011;10137;49.406;19.484;2022-12-07T08:50:03;7.97;;;4.13;;
19951;SDS011;10137;49.406;19.484;2022-12-07T08:52:32;9.07;;;4.30;;
19951;SDS011;10137;49.406;19.484;2022-12-07T08:55:01;6.33;;;4.07;;
19951;SDS011;10137;49.406;19.484;2022-12-07T08:57:29;8.23;;;4.47;;
19951;SDS011;10137;49.406;19.484;2022-12-07T08:59:56;7.40;;;3.80;;
19951;SDS011;10137;49.406;19.484;2022-12-07T09:02:25;7.67;;;4.27;;
19951;SDS011;10137;49.406;19.484;2022-12-07T09:04:52;6.83;;;4.00;;
19951;SDS011;10137;49.406;19.484;2022-12-07T09:07:21;14.20;;;5.50;;
19951;SDS011;10137;49.406;19.484;2022-12-07T09:09:48;15.47;;;5.10;;
19951;SDS011;10137;49.406;19.484;2022-12-07T09:12:15;26.43;;;5.90;;
19951;SDS011;10137;49.406;19.484;2022-12-07T09:14:43;37.90;;;7.03;;
19951;SDS011;10137;49.406;19.484;2022-12-07T09:17:11;31.97;;;7.63;;
19951;SDS011;10137;49.406;19.484;2022-12-07T09:19:39;21.37;;;5.53;;
19951;SDS011;10137;49.406;19.484;2022-12-07T09:22:07;25.53;;;6.40;;
19951;SDS011;10137;49.406;19.484;2022-12-07T09:24:36;15.43;;;4.87;;
19951;SDS011;10137;49.406;19.484;2022-12-07T09:27:03;8.97;;;4.43;;
19951;SDS011;10137;49.406;19.484;2022-12-07T09:29:31;6.70;;;3.37;;
19951;SDS011;10137;49.406;19.484;2022-12-07T09:31:59;6.17;;;3.57;;
19951;SDS011;10137;49.406;19.484;2022-12-07T09:34:26;6.17;;;3.60;;
19951;SDS011;10137;49.406;19.484;2022-12-07T09:36:53;5.77;;;3.70;;
19951;SDS011;10137;49.406;19.484;2022-12-07T09:39:20;5.93;;;3.57;;
19951;SDS011;10137;49.406;19.484;2022-12-07T09:41:56;4.30;;;3.00;;
19951;SDS011;10137;49.406;19.484;2022-12-07T09:44:25;5.90;;;4.53;;
19951;SDS011;10137;49.406;19.484;2022-12-07T09:46:55;7.30;;;4.83;;
19951;SDS011;10137;49.406;19.484;2022-12-07T09:49:23;5.50;;;3.53;;
19951;SDS011;10137;49.406;19.484;2022-12-07T09:52:00;4.10;;;3.07;;
19951;SDS011;10137;49.406;19.484;2022-12-07T09:54:43;5.80;;;3.87;;
19951;SDS011;10137;49.406;19.484;2022-12-07T09:57:14;6.40;;;3.93;;
19951;SDS011;10137;49.406;19.484;2022-12-07T09:59:44;9.70;;;5.90;;
19951;SDS011;10137;49.406;19.484;2022-12-07T10:02:22;6.93;;;4.80;;
19951;SDS011;10137;49.406;19.484;2022-12-07T10:04:54;7.77;;;4.20;;
19951;SDS011;10137;49.406;19.484;2022-12-07T10:07:23;9.87;;;6.80;;
19951;SDS011;10137;49.406;19.484;2022-12-07T10:09:51;7.07;;;4.07;;
19951;SDS011;10137;49.406;19.484;2022-12-07T10:12:19;6.13;;;3.70;;
19951;SDS011;10137;49.406;19.484;2022-12-07T10:14:53;3.83;;;2.90;;
19951;SDS011;10137;49.406;19.484;2022-12-07T10:17:30;4.90;;;3.63;;
19951;SDS011;10137;49.406;19.484;2022-12-07T10:20:12;5.77;;;3.50;;
19951;SDS011;10137;49.406;19.484;2022-12-07T10:22:53;6.07;;;3.70;;
19951;SDS011;10137;49.406;19.484;2022-12-07T10:25:29;3.43;;;2.93;;
19951;SDS011;10137;49.406;19.484;2022-12-07T10:28:08;4.77;;;3.17;;
19951;SDS011;10137;49.406;19.484;2022-12-07T10:33:31;4.80;;;3.03;;
19951;SDS011;10137;49.406;19.484;2022-12-07T10:36:00;5.53;;;3.97;;
19951;SDS011;10137;49.406;19.484;2022-12-07T10:38:43;5.40;;;4.00;;
19951;SDS011;10137;49.406;19.484;2022-12-07T10:41:11;6.10;;;3.67;;
19951;SDS011;10137;49.406;19.484;2022-12-07T10:43:46;6.20;;;4.03;;
19951;SDS011;10137;49.406;19.484;2022-12-07T10:46:25;7.70;;;4.57;;
19951;SDS011;10137;49.406;19.484;2022-12-07T10:52:07;5.63;;;4.20;;
19951;SDS011;10137;49.406;19.484;2022-12-07T10:54:45;5.73;;;3.77;;
19951;SDS011;10137;49.406;19.484;2022-12-07T10:57:20;5.30;;;3.77;;
19951;SDS011;10137;49.406;19.484;2022-12-07T11:00:04;6.10;;;3.70;;
19951;SDS011;10137;49.406;19.484;2022-12-07T11:02:54;5.60;;;3.10;;
19951;SDS011;10137;49.406;19.484;2022-12-07T11:05:33;7.57;;;6.10;;
19951;SDS011;10137;49.406;19.484;2022-12-07T11:08:09;4.63;;;2.63;;
19951;SDS011;10137;49.406;19.484;2022-12-07T11:10:44;6.43;;;3.00;;
19951;SDS011;10137;49.406;19.484;2022-12-07T11:13:23;3.50;;;2.57;;
19951;SDS011;10137;49.406;19.484;2022-12-07T11:18:59;4.90;;;2.87;;
19951;SDS011;10137;49.406;19.484;2022-12-07T11:21:52;5.40;;;3.47;;
19951;SDS011;10137;49.406;19.484;2022-12-07T11:24:25;4.63;;;3.23;;
19951;SDS011;10137;49.406;19.484;2022-12-07T11:27:02;4.77;;;3.50;;
19951;SDS011;10137;49.406;19.484;2022-12-07T11:29:46;7.10;;;3.97;;
19951;SDS011;10137;49.406;19.484;2022-12-07T11:32:32;5.80;;;3.80;;
19951;SDS011;10137;49.406;19.484;2022-12-07T11:35:11;8.30;;;4.57;;
19951;SDS011;10137;49.406;19.484;2022-12-07T11:37:49;11.00;;;6.60;;
19951;SDS011;10137;49.406;19.484;2022-12-07T11:40:19;11.00;;;6.60;;
19951;SDS011;10137;49.406;19.484;2022-12-07T11:42:55;5.83;;;3.37;;
19951;SDS011;10137;49.406;19.484;2022-12-07T11:45:26;3.80;;;2.97;;
19951;SDS011;10137;49.406;19.484;2022-12-07T11:47:57;7.07;;;5.50;;
19951;SDS011;10137;49.406;19.484;2022-12-07T11:50:28;4.90;;;4.40;;
19951;SDS011;10137;49.406;19.484;2022-12-07T11:53:01;6.00;;;3.80;;
19951;SDS011;10137;49.406;19.484;2022-12-07T11:55:37;6.10;;;4.67;;
19951;SDS011;10137;49.406;19.484;2022-12-07T11:58:12;6.47;;;4.67;;
19951;SDS011;10137;49.406;19.484;2022-12-07T12:00:47;4.97;;;3.70;;
19951;SDS011;10137;49.406;19.484;2022-12-07T12:03:20;7.70;;;4.90;;
19951;SDS011;10137;49.406;19.484;2022-12-07T12:05:55;5.70;;;3.57;;
19951;SDS011;10137;49.406;19.484;2022-12-07T12:08:23;6.63;;;3.37;;
19951;SDS011;10137;49.406;19.484;2022-12-07T12:10:58;5.77;;;3.73;;
19951;SDS011;10137;49.406;19.484;2022-12-07T12:16:38;6.70;;;3.97;;
19951;SDS011;10137;49.406;19.484;2022-12-07T12:19:31;8.37;;;5.27;;
19951;SDS011;10137;49.406;19.484;2022-12-07T12:22:03;9.00;;;6.43;;
19951;SDS011;10137;49.406;19.484;2022-12-07T12:24:37;8.80;;;4.80;;
19951;SDS011;10137;49.406;19.484;2022-12-07T12:27:06;5.83;;;3.90;;
19951;SDS011;10137;49.406;19.484;2022-12-07T12:29:36;11.90;;;9.70;;
19951;SDS011;10137;49.406;19.484;2022-12-07T12:32:08;8.60;;;5.50;;
19951;SDS011;10137;49.406;19.484;2022-12-07T12:34:51;8.70;;;5.60;;
19951;SDS011;10137;49.406;19.484;2022-12-07T12:37:39;11.17;;;6.30;;
19951;SDS011;10137;49.406;19.484;2022-12-07T12:49:33;11.53;;;5.80;;
19951;SDS011;10137;49.406;19.484;2022-12-07T12:55:17;10.83;;;5.20;;
19951;SDS011;10137;49.406;19.484;2022-12-07T13:07:47;10.00;;;5.60;;
19951;SDS011;10137;49.406;19.484;2022-12-07T13:10:26;7.17;;;3.90;;
19951;SDS011;10137;49.406;19.484;2022-12-07T13:13:03;7.03;;;4.60;;
19951;SDS011;10137;49.406;19.484;2022-12-07T13:15:51;6.47;;;4.10;;
19951;SDS011;10137;49.406;19.484;2022-12-07T13:18:23;8.13;;;4.07;;
19951;SDS011;10137;49.406;19.484;2022-12-07T13:20:52;5.40;;;3.67;;
19951;SDS011;10137;49.406;19.484;2022-12-07T13:23:21;7.50;;;4.00;;
19951;SDS011;10137;49.406;19.484;2022-12-07T13:25:55;7.17;;;3.77;;
19951;SDS011;10137;49.406;19.484;2022-12-07T13:28:41;7.07;;;3.97;;
19951;SDS011;10137;49.406;19.484;2022-12-07T13:31:11;6.13;;;3.70;;
19951;SDS011;10137;49.406;19.484;2022-12-07T13:33:42;7.10;;;5.00;;
19951;SDS011;10137;49.406;19.484;2022-12-07T13:36:12;5.60;;;3.87;;
19951;SDS011;10137;49.406;19.484;2022-12-07T13:38:48;7.30;;;4.90;;
19951;SDS011;10137;49.406;19.484;2022-12-07T13:41:22;6.83;;;3.80;;
19951;SDS011;10137;49.406;19.484;2022-12-07T13:43:51;5.80;;;3.60;;
19951;SDS011;10137;49.406;19.484;2022-12-07T13:46:32;7.30;;;4.27;;
19951;SDS011;10137;49.406;19.484;2022-12-07T13:49:15;8.15;;;5.20;;
19951;SDS011;10137;49.406;19.484;2022-12-07T13:51:47;6.57;;;4.50;;
19951;SDS011;10137;49.406;19.484;2022-12-07T13:54:15;5.93;;;3.90;;
19951;SDS011;10137;49.406;19.484;2022-12-07T13:56:46;5.57;;;3.47;;
19951;SDS011;10137;49.406;19.484;2022-12-07T13:59:16;6.63;;;4.03;;
19951;SDS011;10137;49.406;19.484;2022-12-07T14:01:47;6.83;;;4.53;;
19951;SDS011;10137;49.406;19.484;2022-12-07T14:04:19;7.63;;;3.97;;
19951;SDS011;10137;49.406;19.484;2022-12-07T14:06:59;9.90;;;4.57;;
19951;SDS011;10137;49.406;19.484;2022-12-07T14:09:28;8.97;;;5.13;;
19951;SDS011;10137;49.406;19.484;2022-12-07T14:11:57;9.37;;;4.90;;
19951;SDS011;10137;49.406;19.484;2022-12-07T14:14:25;6.97;;;4.10;;
19951;SDS011;10137;49.406;19.484;2022-12-07T14:16:56;10.93;;;6.20;;
19951;SDS011;10137;49.406;19.484;2022-12-07T14:19:41;12.60;;;6.80;;
19951;SDS011;10137;49.406;19.484;2022-12-07T14:22:25;18.13;;;8.53;;
19951;SDS011;10137;49.406;19.484;2022-12-07T14:27:53;20.23;;;9.13;;
19951;SDS011;10137;49.406;19.484;2022-12-07T14:30:24;20.70;;;9.63;;
19951;SDS011;10137;49.406;19.484;2022-12-07T14:32:53;17.00;;;9.13;;
19951;SDS011;10137;49.406;19.484;2022-12-07T14:35:23;15.77;;;8.60;;
19951;SDS011;10137;49.406;19.484;2022-12-07T14:37:50;16.90;;;9.70;;
19951;SDS011;10137;49.406;19.484;2022-12-07T14:40:18;17.70;;;10.83;;
19951;SDS011;10137;49.406;19.484;2022-12-07T14:42:47;16.30;;;9.77;;
19951;SDS011;10137;49.406;19.484;2022-12-07T14:45:18;16.80;;;9.37;;
19951;SDS011;10137;49.406;19.484;2022-12-07T14:47:47;10.97;;;6.73;;
19951;SDS011;10137;49.406;19.484;2022-12-07T14:50:15;11.67;;;7.27;;
19951;SDS011;10137;49.406;19.484;2022-12-07T14:52:45;12.13;;;7.37;;
19951;SDS011;10137;49.406;19.484;2022-12-07T14:55:16;12.90;;;6.90;;
19951;SDS011;10137;49.406;19.484;2022-12-07T14:57:49;15.93;;;9.43;;
19951;SDS011;10137;49.406;19.484;2022-12-07T15:00:19;15.77;;;9.50;;
19951;SDS011;10137;49.406;19.484;2022-12-07T15:02:49;14.77;;;8.80;;
19951;SDS011;10137;49.406;19.484;2022-12-07T15:05:16;13.77;;;7.70;;
19951;SDS011;10137;49.406;19.484;2022-12-07T15:07:45;16.27;;;8.33;;
19951;SDS011;10137;49.406;19.484;2022-12-07T15:10:16;18.77;;;10.07;;
19951;SDS011;10137;49.406;19.484;2022-12-07T15:12:45;13.87;;;8.00;;
19951;SDS011;10137;49.406;19.484;2022-12-07T15:15:12;16.17;;;9.83;;
19951;SDS011;10137;49.406;19.484;2022-12-07T15:17:41;15.40;;;8.60;;
19951;SDS011;10137;49.406;19.484;2022-12-07T15:20:09;14.37;;;7.97;;
19951;SDS011;10137;49.406;19.484;2022-12-07T15:22:38;13.90;;;8.13;;
19951;SDS011;10137;49.406;19.484;2022-12-07T15:25:05;20.07;;;10.47;;
19951;SDS011;10137;49.406;19.484;2022-12-07T15:27:33;16.63;;;9.87;;
19951;SDS011;10137;49.406;19.484;2022-12-07T15:30:00;16.20;;;9.53;;
19951;SDS011;10137;49.406;19.484;2022-12-07T15:32:28;15.13;;;8.57;;